Time;durP1;ratioP1;P1;durP2;ratioP2;P2;SDS_P1;SDS_P2;PMS_P1;PMS_P2;Temp;Humidity;BMP_temperature;BMP_pressure;BME280_temperature;BME280_humidity;BME280_pressure;Samples;Min_cycle;Max_cycle;Signal;HPM_P1;HPM_P2
2022/01/25 00:32:15;;;;;;;4.38;3.40;;;;;;;;;;4987909;28;20095;-35
2022/01/25 00:34:41;;;;;;;4.13;3.33;;;;;;;;;;4991819;28;20049;-37
2022/01/25 00:37:06;;;;;;;4.78;3.60;;;;;;;;;;5006313;28;20090;-36
2022/01/25 00:39:32;;;;;;;5.07;3.83;;;;;;;;;;5007012;28;20080;-36
2022/01/25 00:41:57;;;;;;;3.78;3.38;;;;;;;;;;5006565;28;20558;-35
2022/01/25 00:44:24;;;;;;;4.40;3.47;;;;;;;;;;5006616;28;20038;-32
2022/01/25 00:46:49;;;;;;;4.78;3.72;;;;;;;;;;4994979;28;20065;-39
2022/01/25 00:49:25;;;;;;;5.30;3.60;;;;;;;;;;4987321;28;20057;-32
2022/01/25 00:56:48;;;;;;;3.53;2.95;;;;;;;;;;4987199;28;20504;-34
2022/01/25 00:59:19;;;;;;;5.43;3.90;;;;;;;;;;4987306;28;20066;-31
2022/01/25 01:01:45;;;;;;;3.70;3.30;;;;;;;;;;4987052;28;20114;-31
2022/01/25 01:04:10;;;;;;;3.72;3.22;;;;;;;;;;4986079;28;20553;-36
2022/01/25 01:06:37;;;;;;;4.07;3.40;;;;;;;;;;4987090;28;20034;-33
2022/01/25 01:09:04;;;;;;;4.20;3.10;;;;;;;;;;4986813;28;20030;-36
2022/01/25 01:11:36;;;;;;;4.60;3.25;;;;;;;;;;4987131;28;20046;-38
2022/01/25 01:31:00;;;;;;;4.68;3.33;;;;;;;;;;4987016;28;20049;-33
2022/01/25 01:43:54;;;;;;;4.07;2.65;;;;;;;;;;4985956;28;20096;-34
2022/01/25 01:46:56;;;;;;;3.72;2.75;;;;;;;;;;4987203;28;20058;-34
2022/01/25 01:49:07;;;;;;;3.78;2.80;;;;;;;;;;4986026;28;20042;-33
2022/01/25 01:51:36;;;;;;;3.20;2.55;;;;;;;;;;4985995;28;20080;-33
2022/01/25 01:54:04;;;;;;;4.03;2.70;;;;;;;;;;4986410;28;20038;-38
2022/01/25 01:56:30;;;;;;;3.17;2.60;;;;;;;;;;4985833;28;20022;-38
2022/01/25 01:58:57;;;;;;;3.25;2.50;;;;;;;;;;4986127;28;20031;-34
2022/01/25 02:01:24;;;;;;;3.33;2.80;;;;;;;;;;4984832;28;20041;-35
2022/01/25 02:03:50;;;;;;;3.00;2.55;;;;;;;;;;4985891;28;20034;-35
2022/01/25 02:06:15;;;;;;;3.42;2.60;;;;;;;;;;4986015;28;20034;-35
2022/01/25 02:08:41;;;;;;;3.97;2.80;;;;;;;;;;4985800;28;20018;-32
2022/01/25 02:11:07;;;;;;;3.22;2.40;;;;;;;;;;4985474;28;20030;-38
2022/01/25 02:13:32;;;;;;;3.17;2.30;;;;;;;;;;4985624;28;20409;-33
2022/01/25 02:16:01;;;;;;;3.30;2.53;;;;;;;;;;4985117;28;20050;-36
2022/01/25 02:23:55;;;;;;;2.90;2.38;;;;;;;;;;4985443;28;20104;-37
2022/01/25 02:26:20;;;;;;;3.25;2.92;;;;;;;;;;4985619;28;20038;-33
2022/01/25 02:28:46;;;;;;;2.97;2.28;;;;;;;;;;4985374;28;20030;-33
2022/01/25 02:31:12;;;;;;;3.50;2.80;;;;;;;;;;4985197;28;20046;-33
2022/01/25 02:33:38;;;;;;;3.10;2.30;;;;;;;;;;4985342;28;20050;-39
2022/01/25 02:36:09;;;;;;;2.88;2.10;;;;;;;;;;4985060;28;20044;-38
2022/01/25 02:38:34;;;;;;;2.67;2.05;;;;;;;;;;4985890;28;20022;-36
2022/01/25 02:41:00;;;;;;;2.72;2.25;;;;;;;;;;4985707;28;20515;-36
2022/01/25 02:43:26;;;;;;;3.42;2.42;;;;;;;;;;4985159;28;20034;-36
2022/01/25 02:46:19;;;;;;;2.72;2.15;;;;;;;;;;4989729;28;20060;-31
2022/01/25 02:48:55;;;;;;;2.75;2.13;;;;;;;;;;5004738;28;20501;-34
2022/01/25 02:51:23;;;;;;;2.70;2.30;;;;;;;;;;5005025;28;20133;-30
2022/01/25 02:53:49;;;;;;;3.85;2.58;;;;;;;;;;5004813;28;20028;-36
2022/01/25 02:56:15;;;;;;;3.00;2.38;;;;;;;;;;5004835;28;20404;-38
2022/01/25 02:58:41;;;;;;;3.47;2.50;;;;;;;;;;5004926;28;20029;-30
2022/01/25 03:01:06;;;;;;;2.85;2.20;;;;;;;;;;5004571;28;20192;-37
2022/01/25 03:03:32;;;;;;;2.70;2.30;;;;;;;;;;5004299;28;20034;-34
2022/01/25 03:05:58;;;;;;;2.20;2.00;;;;;;;;;;5004412;28;20026;-34
2022/01/25 03:08:24;;;;;;;2.72;2.20;;;;;;;;;;5004798;28;20042;-33
2022/01/25 03:10:49;;;;;;;2.42;1.80;;;;;;;;;;5004355;28;20400;-36
2022/01/25 03:13:20;;;;;;;3.15;2.20;;;;;;;;;;5004268;28;20101;-33
2022/01/25 03:18:35;;;;;;;2.75;2.17;;;;;;;;;;5004685;28;20038;-33
2022/01/25 03:21:04;;;;;;;2.65;2.28;;;;;;;;;;5004248;28;20045;-32
2022/01/25 03:23:31;;;;;;;2.67;2.22;;;;;;;;;;5004322;28;20560;-33
2022/01/25 03:25:57;;;;;;;2.40;2.13;;;;;;;;;;5004368;28;20549;-34
2022/01/25 03:28:22;;;;;;;2.40;1.98;;;;;;;;;;5006477;28;20025;-35
2022/01/25 03:30:48;;;;;;;2.80;2.10;;;;;;;;;;5008226;28;20065;-36
2022/01/25 03:33:14;;;;;;;2.70;2.10;;;;;;;;;;5008132;28;20081;-33
2022/01/25 03:35:40;;;;;;;3.47;2.30;;;;;;;;;;5008616;28;20038;-30
2022/01/25 03:38:05;;;;;;;2.92;2.20;;;;;;;;;;5008005;28;20443;-37
2022/01/25 03:40:31;;;;;;;2.30;1.98;;;;;;;;;;5007948;28;20032;-34
2022/01/25 03:42:59;;;;;;;3.33;2.50;;;;;;;;;;4989745;28;20108;-36
2022/01/25 03:45:30;;;;;;;2.45;1.80;;;;;;;;;;4989451;28;20042;-35
2022/01/25 03:50:24;;;;;;;2.53;1.98;;;;;;;;;;4988131;28;20027;-38
2022/01/25 03:52:49;;;;;;;2.45;2.00;;;;;;;;;;4988552;28;20481;-35
2022/01/25 03:55:15;;;;;;;2.58;2.05;;;;;;;;;;4988372;28;20035;-32
2022/01/25 03:57:41;;;;;;;2.60;1.92;;;;;;;;;;4998550;28;20022;-33
2022/01/25 04:00:07;;;;;;;2.17;1.75;;;;;;;;;;5018642;28;20381;-36
2022/01/25 04:02:35;;;;;;;2.40;1.90;;;;;;;;;;5027519;28;20025;-35
2022/01/25 04:05:01;;;;;;;2.00;1.70;;;;;;;;;;5027592;28;20030;-38
2022/01/25 04:07:42;;;;;;;2.00;1.80;;;;;;;;;;5027150;28;20061;-33
2022/01/25 04:10:08;;;;;;;2.45;1.92;;;;;;;;;;5027360;28;20041;-32
2022/01/25 04:12:33;;;;;;;2.28;1.67;;;;;;;;;;5027327;28;20496;-37
2022/01/25 04:15:00;;;;;;;2.67;2.17;;;;;;;;;;5027075;28;20029;-36
2022/01/25 04:17:26;;;;;;;2.63;2.00;;;;;;;;;;5027526;28;20140;-38
2022/01/25 04:20:13;;;;;;;2.63;2.22;;;;;;;;;;5027054;28;20578;-36
2022/01/25 04:25:22;;;;;;;2.38;1.77;;;;;;;;;;5027478;28;20557;-36
2022/01/25 04:27:48;;;;;;;2.22;2.00;;;;;;;;;;5027600;28;20061;-37
2022/01/25 04:30:14;;;;;;;2.72;2.10;;;;;;;;;;5026998;28;20096;-33
2022/01/25 04:35:14;;;;;;;2.53;2.03;;;;;;;;;;5027098;28;20037;-33
2022/01/25 04:51:51;;;;;;;;;;;;;;;;;;4984526;28;20794;-34
2022/01/25 04:54:43;;;;;;;2.38;1.83;;;;;;;;;;4984424;28;19917;-35
2022/01/25 04:59:57;;;;;;;2.30;1.83;;;;;;;;;;5002111;28;20030;-37
2022/01/25 05:05:04;;;;;;;1.75;1.63;;;;;;;;;;5006936;28;20038;-37
2022/01/25 05:07:58;;;;;;;2.20;1.80;;;;;;;;;;5006773;28;20050;-35
2022/01/25 05:10:16;;;;;;;2.00;1.70;;;;;;;;;;5006816;28;20041;-37
2022/01/25 05:12:53;;;;;;;2.67;2.05;;;;;;;;;;5006178;28;20033;-37
2022/01/25 05:15:48;;;;;;;2.30;1.70;;;;;;;;;;5006279;28;20040;-32
2022/01/25 05:18:34;;;;;;;1.95;1.70;;;;;;;;;;5006829;28;20424;-34
2022/01/25 05:23:44;;;;;;;2.40;1.63;;;;;;;;;;5006680;28;20049;-39
2022/01/25 05:26:10;;;;;;;5.25;1.77;;;;;;;;;;4996562;28;20034;-34
2022/01/25 05:28:35;;;;;;;9.10;1.95;;;;;;;;;;5003486;28;20033;-34
2022/01/25 05:31:01;;;;;;;6.47;2.35;;;;;;;;;;5016329;28;20033;-33
2022/01/25 05:33:26;;;;;;;7.13;2.15;;;;;;;;;;5006746;28;20072;-36
2022/01/25 05:35:51;;;;;;;9.40;2.38;;;;;;;;;;5002239;28;20472;-35
2022/01/25 05:38:17;;;;;;;12.48;2.55;;;;;;;;;;5004554;28;20040;-33
2022/01/25 05:40:49;;;;;;;7.63;2.60;;;;;;;;;;5003071;28;20026;-36
2022/01/25 05:48:16;;;;;;;5.70;2.78;;;;;;;;;;5004433;28;20061;-39
2022/01/25 05:50:41;;;;;;;9.95;3.17;;;;;;;;;;5002847;28;20061;-37
2022/01/25 05:53:07;;;;;;;9.18;3.08;;;;;;;;;;5003858;28;20040;-36
2022/01/25 05:55:32;;;;;;;9.27;4.95;;;;;;;;;;4998839;28;20037;-37
2022/01/25 05:57:58;;;;;;;8.68;4.00;;;;;;;;;;5011570;28;20041;-35
2022/01/25 06:00:23;;;;;;;10.88;4.13;;;;;;;;;;5004200;28;20440;-38
2022/01/25 06:02:54;;;;;;;16.15;9.20;;;;;;;;;;4997479;28;20030;-32
2022/01/25 06:05:19;;;;;;;24.48;12.95;;;;;;;;;;4994217;28;20018;-36
2022/01/25 06:07:45;;;;;;;21.23;13.27;;;;;;;;;;5003704;28;20064;-36
2022/01/25 06:10:10;;;;;;;25.63;13.10;;;;;;;;;;5002632;28;20087;-34
2022/01/25 06:12:36;;;;;;;20.02;11.70;;;;;;;;;;5004994;28;20018;-34
2022/01/25 06:15:01;;;;;;;22.95;10.30;;;;;;;;;;5004293;28;20030;-34
2022/01/25 06:17:27;;;;;;;19.48;10.45;;;;;;;;;;5023286;28;20033;-38
2022/01/25 06:19:52;;;;;;;16.77;10.32;;;;;;;;;;5023250;28;20084;-37
2022/01/25 06:22:18;;;;;;;17.65;10.30;;;;;;;;;;5014132;28;20023;-36
2022/01/25 06:24:43;;;;;;;18.38;10.70;;;;;;;;;;4999438;28;20025;-39
2022/01/25 06:27:09;;;;;;;13.93;9.88;;;;;;;;;;5001476;28;20022;-35
2022/01/25 06:29:34;;;;;;;15.75;9.93;;;;;;;;;;4995060;28;20184;-39
2022/01/25 06:32:00;;;;;;;17.27;10.13;;;;;;;;;;4999812;28;20404;-37
2022/01/25 06:34:26;;;;;;;19.00;9.60;;;;;;;;;;5002949;28;20053;-32
2022/01/25 06:36:51;;;;;;;17.38;9.40;;;;;;;;;;4996318;28;20038;-38
2022/01/25 06:39:17;;;;;;;17.35;9.02;;;;;;;;;;4989720;28;20057;-34
2022/01/25 06:41:42;;;;;;;17.08;8.40;;;;;;;;;;4996664;28;20477;-33
2022/01/25 06:44:08;;;;;;;17.75;8.80;;;;;;;;;;4989029;28;20046;-37
2022/01/25 06:46:33;;;;;;;16.83;8.05;;;;;;;;;;4996796;28;20037;-36
2022/01/25 06:48:59;;;;;;;10.68;7.35;;;;;;;;;;5006570;28;20030;-36
2022/01/25 06:51:24;;;;;;;14.48;7.55;;;;;;;;;;5002545;28;20346;-32
2022/01/25 06:53:50;;;;;;;11.48;8.00;;;;;;;;;;5012144;28;20480;-35
2022/01/25 06:56:15;;;;;;;13.60;7.47;;;;;;;;;;5002838;28;20180;-33
2022/01/25 06:58:41;;;;;;;10.68;7.85;;;;;;;;;;5012308;28;20033;-37
2022/01/25 07:01:08;;;;;;;15.55;7.55;;;;;;;;;;5011577;28;20033;-34
2022/01/25 07:03:33;;;;;;;13.32;7.30;;;;;;;;;;5003523;28;20029;-34
2022/01/25 07:05:59;;;;;;;10.68;6.88;;;;;;;;;;5002211;28;20042;-38
2022/01/25 07:08:24;;;;;;;11.80;7.40;;;;;;;;;;5003835;28;20025;-37
2022/01/25 07:10:50;;;;;;;10.80;7.55;;;;;;;;;;5003498;28;20108;-35
2022/01/25 07:13:15;;;;;;;10.57;7.50;;;;;;;;;;5003966;28;20455;-33
2022/01/25 07:15:41;;;;;;;18.65;8.23;;;;;;;;;;5004590;28;20511;-31
2022/01/25 07:18:06;;;;;;;10.43;7.65;;;;;;;;;;5002984;28;20030;-35
2022/01/25 07:20:32;;;;;;;14.73;7.85;;;;;;;;;;5003239;28;20033;-33
2022/01/25 07:22:57;;;;;;;13.75;7.65;;;;;;;;;;5002968;28;20500;-38
2022/01/25 07:25:25;;;;;;;11.38;7.55;;;;;;;;;;5003067;28;20084;-34
2022/01/25 07:27:50;;;;;;;14.13;7.90;;;;;;;;;;5002756;28;20638;-37
2022/01/25 07:30:16;;;;;;;14.15;7.50;;;;;;;;;;4983179;28;20022;-31
2022/01/25 07:32:41;;;;;;;12.25;7.63;;;;;;;;;;4983980;28;20393;-37
2022/01/25 07:35:07;;;;;;;12.32;7.38;;;;;;;;;;4982432;28;20245;-35
2022/01/25 07:37:32;;;;;;;12.80;6.78;;;;;;;;;;4984750;28;20034;-35
2022/01/25 07:39:58;;;;;;;10.15;7.05;;;;;;;;;;4984592;28;20133;-36
2022/01/25 07:42:24;;;;;;;9.70;6.68;;;;;;;;;;4984753;28;20031;-32
2022/01/25 07:44:49;;;;;;;9.82;7.10;;;;;;;;;;4985488;28;20045;-34
2022/01/25 07:47:15;;;;;;;9.95;6.80;;;;;;;;;;4985156;28;20126;-35
2022/01/25 07:49:40;;;;;;;9.40;6.45;;;;;;;;;;4984461;28;20033;-36
2022/01/25 07:52:07;;;;;;;9.52;7.30;;;;;;;;;;4984807;28;20031;-34
2022/01/25 07:54:33;;;;;;;8.48;7.00;;;;;;;;;;4984481;28;20054;-38
2022/01/25 07:56:58;;;;;;;8.90;6.85;;;;;;;;;;4984795;28;20061;-32
2022/01/25 07:59:24;;;;;;;8.80;6.72;;;;;;;;;;4984772;28;20026;-34
2022/01/25 08:01:50;;;;;;;9.80;6.97;;;;;;;;;;4984712;28;20118;-32
2022/01/25 08:04:16;;;;;;;10.07;6.93;;;;;;;;;;4984389;28;20040;-33
2022/01/25 08:06:41;;;;;;;10.23;6.60;;;;;;;;;;4983417;28;20034;-32
2022/01/25 08:09:07;;;;;;;10.50;6.53;;;;;;;;;;4984592;28;20253;-33
2022/01/25 08:11:33;;;;;;;10.82;6.65;;;;;;;;;;4984468;28;20473;-36
2022/01/25 08:14:18;;;;;;;10.10;6.40;;;;;;;;;;4986036;28;20081;-35
2022/01/25 08:16:45;;;;;;;9.60;6.78;;;;;;;;;;4988107;28;20500;-34
2022/01/25 08:19:11;;;;;;;7.15;5.88;;;;;;;;;;4987796;28;20034;-39
2022/01/25 08:21:37;;;;;;;7.47;5.70;;;;;;;;;;4987746;28;20045;-35
2022/01/25 08:24:04;;;;;;;8.75;6.82;;;;;;;;;;4987895;28;20101;-31
2022/01/25 08:26:29;;;;;;;9.95;6.40;;;;;;;;;;4988344;28;20263;-38
2022/01/25 08:28:55;;;;;;;7.13;5.93;;;;;;;;;;4987952;28;20049;-35
2022/01/25 08:31:20;;;;;;;8.90;6.25;;;;;;;;;;4987869;28;20042;-34
2022/01/25 08:33:46;;;;;;;9.30;6.45;;;;;;;;;;4987907;28;20058;-36
2022/01/25 08:36:12;;;;;;;9.13;6.38;;;;;;;;;;4987685;28;20037;-33
2022/01/25 08:38:37;;;;;;;10.00;6.43;;;;;;;;;;4987671;28;20060;-36
2022/01/25 08:41:06;;;;;;;9.07;6.50;;;;;;;;;;4987567;28;20023;-31
2022/01/25 08:43:32;;;;;;;8.43;6.10;;;;;;;;;;4987468;28;20034;-33
2022/01/25 08:45:58;;;;;;;8.73;6.55;;;;;;;;;;4988018;28;20068;-32
2022/01/25 08:48:24;;;;;;;8.95;6.18;;;;;;;;;;4987697;28;20436;-37
2022/01/25 08:50:49;;;;;;;7.90;6.10;;;;;;;;;;4988066;28;20034;-38
2022/01/25 08:53:15;;;;;;;7.97;6.43;;;;;;;;;;4987629;28;20523;-38
2022/01/25 08:55:40;;;;;;;7.90;5.88;;;;;;;;;;4987358;28;20034;-35
2022/01/25 08:58:06;;;;;;;8.07;6.40;;;;;;;;;;4987794;28;20034;-35
2022/01/25 09:00:31;;;;;;;9.20;6.53;;;;;;;;;;4987583;28;20034;-35
2022/01/25 09:02:58;;;;;;;7.75;6.70;;;;;;;;;;4986798;28;20045;-33
2022/01/25 09:05:23;;;;;;;7.85;6.20;;;;;;;;;;4987233;28;20026;-38
2022/01/25 09:07:49;;;;;;;7.63;5.80;;;;;;;;;;4987568;28;20034;-34
2022/01/25 09:10:15;;;;;;;8.63;6.25;;;;;;;;;;4987054;28;20045;-36
2022/01/25 09:12:40;;;;;;;8.07;6.68;;;;;;;;;;4987777;28;20026;-37
2022/01/25 09:15:06;;;;;;;10.30;7.00;;;;;;;;;;4987181;28;20025;-36
2022/01/25 09:17:31;;;;;;;8.40;6.35;;;;;;;;;;4987369;28;20112;-38
2022/01/25 09:19:57;;;;;;;8.18;6.32;;;;;;;;;;4987272;28;20104;-35
2022/01/25 09:22:22;;;;;;;10.35;7.10;;;;;;;;;;4987291;28;20038;-34
2022/01/25 09:24:49;;;;;;;8.55;6.60;;;;;;;;;;4986239;28;20034;-35
2022/01/25 09:27:15;;;;;;;8.85;6.38;;;;;;;;;;4986442;28;20097;-35
2022/01/25 09:29:40;;;;;;;8.18;6.28;;;;;;;;;;4987019;28;20034;-31
2022/01/25 09:32:06;;;;;;;7.70;5.88;;;;;;;;;;4987031;28;20030;-37
2022/01/25 09:34:32;;;;;;;8.70;6.63;;;;;;;;;;4986970;28;20047;-35
2022/01/25 09:36:57;;;;;;;8.20;6.57;;;;;;;;;;4986562;28;20421;-34
2022/01/25 09:39:22;;;;;;;8.38;6.75;;;;;;;;;;4987028;28;20097;-36
2022/01/25 09:41:48;;;;;;;9.45;6.63;;;;;;;;;;4986653;28;20413;-38
2022/01/25 09:44:15;;;;;;;10.00;7.13;;;;;;;;;;4985683;28;20034;-29
2022/01/25 09:46:42;;;;;;;7.95;6.68;;;;;;;;;;4986570;28;20505;-34
2022/01/25 09:49:08;;;;;;;9.07;7.10;;;;;;;;;;4985117;28;20056;-36
2022/01/25 09:51:34;;;;;;;9.10;6.43;;;;;;;;;;4969282;28;20473;-37
2022/01/25 09:53:59;;;;;;;8.00;7.07;;;;;;;;;;4985298;28;20501;-33
2022/01/25 09:56:24;;;;;;;9.05;6.45;;;;;;;;;;4986795;28;20101;-33
2022/01/25 09:58:51;;;;;;;8.45;6.60;;;;;;;;;;4986786;28;20026;-36
2022/01/25 10:01:23;;;;;;;7.72;6.57;;;;;;;;;;4986396;28;20143;-35
2022/01/25 10:03:49;;;;;;;7.05;6.13;;;;;;;;;;4986640;28;20508;-38
2022/01/25 10:06:17;;;;;;;9.82;7.07;;;;;;;;;;4986611;28;20033;-33
2022/01/25 10:08:42;;;;;;;7.53;6.28;;;;;;;;;;4986549;28;20030;-34
2022/01/25 10:11:12;;;;;;;8.90;7.30;;;;;;;;;;4986463;28;20042;-35
2022/01/25 10:13:40;;;;;;;8.02;6.30;;;;;;;;;;4986687;28;20022;-31
2022/01/25 10:16:08;;;;;;;8.00;6.45;;;;;;;;;;4986233;28;20497;-38
2022/01/25 10:18:50;;;;;;;8.40;6.72;;;;;;;;;;4986326;28;20091;-31
2022/01/25 10:21:23;;;;;;;8.68;6.88;;;;;;;;;;4986044;28;20087;-38
2022/01/25 10:24:08;;;;;;;8.90;7.28;;;;;;;;;;4986252;28;20038;-35
2022/01/25 10:26:39;;;;;;;9.50;6.95;;;;;;;;;;4986215;28;20034;-34
2022/01/25 10:29:09;;;;;;;8.88;7.05;;;;;;;;;;4986190;28;20029;-37
2022/01/25 10:31:42;;;;;;;8.65;6.65;;;;;;;;;;4986227;28;20054;-30
2022/01/25 10:34:08;;;;;;;10.02;6.50;;;;;;;;;;4985806;28;20070;-35
2022/01/25 10:36:35;;;;;;;8.40;6.70;;;;;;;;;;4985947;28;20026;-36
2022/01/25 10:39:01;;;;;;;7.90;6.53;;;;;;;;;;4984431;28;20026;-33
2022/01/25 10:41:27;;;;;;;10.63;6.65;;;;;;;;;;4985929;28;20023;-37
2022/01/25 10:43:54;;;;;;;8.57;6.65;;;;;;;;;;4986290;28;20113;-36
2022/01/25 10:46:26;;;;;;;8.98;6.28;;;;;;;;;;4986091;28;20034;-34
2022/01/25 10:48:54;;;;;;;9.02;6.88;;;;;;;;;;4985681;28;20492;-36
2022/01/25 10:51:25;;;;;;;7.50;6.35;;;;;;;;;;4985632;28;20039;-37
2022/01/25 10:53:58;;;;;;;7.90;6.43;;;;;;;;;;4985852;28;20097;-32
2022/01/25 10:56:23;;;;;;;8.98;7.22;;;;;;;;;;4985685;28;20754;-37
2022/01/25 10:58:49;;;;;;;9.90;7.45;;;;;;;;;;4985642;28;20027;-34
2022/01/25 11:01:28;;;;;;;8.13;6.72;;;;;;;;;;4985241;28;20045;-37
2022/01/25 11:04:02;;;;;;;8.10;6.35;;;;;;;;;;4999211;28;20034;-34
2022/01/25 11:06:27;;;;;;;8.73;7.22;;;;;;;;;;5000106;28;20027;-35
2022/01/25 11:08:54;;;;;;;7.97;6.72;;;;;;;;;;4985780;28;20564;-35
2022/01/25 11:11:23;;;;;;;9.32;7.05;;;;;;;;;;4985266;28;20053;-38
2022/01/25 11:13:50;;;;;;;9.18;6.97;;;;;;;;;;4985525;28;20019;-30
2022/01/25 11:16:15;;;;;;;9.43;6.95;;;;;;;;;;4985450;28;20252;-38
2022/01/25 11:18:41;;;;;;;9.32;7.15;;;;;;;;;;4985339;28;20400;-36
2022/01/25 11:21:09;;;;;;;7.68;6.50;;;;;;;;;;4985089;28;20108;-33
2022/01/25 11:23:39;;;;;;;9.05;7.38;;;;;;;;;;4985336;28;20031;-36
2022/01/25 11:26:08;;;;;;;8.10;6.43;;;;;;;;;;4985505;28;20022;-35
2022/01/25 11:28:34;;;;;;;7.72;6.72;;;;;;;;;;4985625;28;20409;-33
2022/01/25 11:31:02;;;;;;;8.18;6.88;;;;;;;;;;4985124;28;20068;-37
2022/01/25 11:33:27;;;;;;;8.15;6.63;;;;;;;;;;4999957;28;20580;-35
2022/01/25 11:35:53;;;;;;;8.68;7.30;;;;;;;;;;4984092;28;20109;-37
2022/01/25 11:38:41;;;;;;;8.93;6.78;;;;;;;;;;4985046;28;20061;-36
2022/01/25 11:41:11;;;;;;;8.75;7.13;;;;;;;;;;4985256;28;20030;-35
2022/01/25 11:43:37;;;;;;;9.73;7.03;;;;;;;;;;4985579;28;20030;-35
2022/01/25 11:46:04;;;;;;;10.05;7.43;;;;;;;;;;4985158;28;20026;-35
2022/01/25 11:48:59;;;;;;;8.73;6.70;;;;;;;;;;4984967;28;20053;-33
2022/01/25 11:51:24;;;;;;;10.05;7.43;;;;;;;;;;4989383;28;20744;-38
2022/01/25 11:53:50;;;;;;;7.80;6.57;;;;;;;;;;4989248;28;20030;-34
2022/01/25 11:56:16;;;;;;;9.77;7.38;;;;;;;;;;4989065;28;20524;-35
2022/01/25 11:58:42;;;;;;;10.15;7.90;;;;;;;;;;5003700;28;20619;-35
2022/01/25 12:01:19;;;;;;;11.13;7.50;;;;;;;;;;4988773;28;20105;-32
2022/01/25 12:03:54;;;;;;;9.10;7.50;;;;;;;;;;4988771;28;20026;-35
2022/01/25 12:06:28;;;;;;;10.90;7.60;;;;;;;;;;4987496;28;20517;-33
2022/01/25 12:11:57;;;;;;;9.98;7.80;;;;;;;;;;4988862;28;20525;-32
2022/01/25 12:14:26;;;;;;;9.45;7.57;;;;;;;;;;4988639;28;20026;-36
2022/01/25 12:17:04;;;;;;;9.93;7.88;;;;;;;;;;4988672;28;20121;-35
2022/01/25 12:19:50;;;;;;;10.15;7.97;;;;;;;;;;4987183;28;20022;-31
2022/01/25 12:22:35;;;;;;;8.32;7.38;;;;;;;;;;4988853;28;20034;-33
2022/01/25 12:27:55;;;;;;;8.55;7.63;;;;;;;;;;4988555;28;20702;-35
2022/01/25 12:30:32;;;;;;;11.15;8.45;;;;;;;;;;4988346;28;20518;-35
2022/01/25 12:33:04;;;;;;;9.57;8.13;;;;;;;;;;4988312;28;20089;-35
2022/01/25 12:35:35;;;;;;;10.02;8.88;;;;;;;;;;4988642;28;20030;-35
2022/01/25 12:38:02;;;;;;;10.20;8.32;;;;;;;;;;4988335;28;20092;-34
2022/01/25 12:40:30;;;;;;;11.48;8.43;;;;;;;;;;4988233;28;20034;-33
2022/01/25 12:42:57;;;;;;;11.68;8.93;;;;;;;;;;4988201;28;20030;-36
2022/01/25 12:45:25;;;;;;;11.45;8.95;;;;;;;;;;4988840;28;20035;-33
2022/01/25 12:47:58;;;;;;;10.73;8.25;;;;;;;;;;4988408;28;20516;-34
2022/01/25 12:50:24;;;;;;;10.57;8.32;;;;;;;;;;4988116;28;20030;-37
2022/01/25 12:52:50;;;;;;;10.77;8.68;;;;;;;;;;4987891;28;20042;-32
2022/01/25 12:55:16;;;;;;;11.52;8.90;;;;;;;;;;4987619;28;20022;-32
2022/01/25 12:57:48;;;;;;;9.82;8.30;;;;;;;;;;4987814;28;20084;-33
2022/01/25 13:00:14;;;;;;;10.73;8.82;;;;;;;;;;4986645;28;20121;-30
2022/01/25 13:02:40;;;;;;;12.30;8.95;;;;;;;;;;4987624;28;20038;-31
2022/01/25 13:05:19;;;;;;;9.63;8.05;;;;;;;;;;4987351;28;20041;-35
2022/01/25 13:07:45;;;;;;;11.45;8.23;;;;;;;;;;4987987;28;20425;-32
2022/01/25 13:10:12;;;;;;;10.00;8.13;;;;;;;;;;4987543;28;20042;-32
2022/01/25 13:12:55;;;;;;;10.27;8.80;;;;;;;;;;4987648;28;20618;-34
2022/01/25 13:15:52;;;;;;;10.07;8.27;;;;;;;;;;4987619;28;20035;-35
2022/01/25 13:18:17;;;;;;;10.45;8.48;;;;;;;;;;4987278;28;20117;-34
2022/01/25 13:20:46;;;;;;;11.00;8.73;;;;;;;;;;4987524;28;20027;-36
2022/01/25 13:23:12;;;;;;;10.07;8.55;;;;;;;;;;4987123;28;20038;-35
2022/01/25 13:25:55;;;;;;;11.63;8.90;;;;;;;;;;4987365;28;20103;-34
2022/01/25 13:28:36;;;;;;;11.05;8.63;;;;;;;;;;4987141;28;20049;-29
2022/01/25 13:31:11;;;;;;;10.38;8.27;;;;;;;;;;4987394;28;20034;-36
2022/01/25 13:33:37;;;;;;;10.93;8.60;;;;;;;;;;4987367;28;20058;-34
2022/01/25 13:36:04;;;;;;;11.57;8.70;;;;;;;;;;4987055;28;20034;-32
2022/01/25 13:38:37;;;;;;;10.90;8.85;;;;;;;;;;4987096;28;20034;-35
2022/01/25 13:46:29;;;;;;;13.85;10.00;;;;;;;;;;4986804;28;20038;-35
2022/01/25 13:48:56;;;;;;;11.52;8.95;;;;;;;;;;4986844;28;20117;-36
2022/01/25 13:51:26;;;;;;;11.68;8.77;;;;;;;;;;4986347;28;20027;-37
2022/01/25 13:53:55;;;;;;;11.57;9.05;;;;;;;;;;4986678;28;20045;-33
2022/01/25 13:56:22;;;;;;;12.57;9.65;;;;;;;;;;4986716;28;20033;-36
2022/01/25 13:58:49;;;;;;;12.25;9.27;;;;;;;;;;4986757;28;20495;-35
2022/01/25 14:01:15;;;;;;;11.02;9.30;;;;;;;;;;4986477;28;20138;-36
2022/01/25 14:03:50;;;;;;;10.65;9.02;;;;;;;;;;4986437;28;20041;-32
2022/01/25 14:06:26;;;;;;;12.20;9.63;;;;;;;;;;4986618;28;20031;-35
2022/01/25 14:09:29;;;;;;;11.85;9.57;;;;;;;;;;4987063;28;20054;-36
2022/01/25 14:25:34;;;;;;;12.10;9.93;;;;;;;;;;5006318;28;20045;-30
2022/01/25 14:28:02;;;;;;;11.95;9.25;;;;;;;;;;5022129;28;20041;-37
2022/01/25 14:30:30;;;;;;;11.40;9.20;;;;;;;;;;5019517;28;20439;-33
2022/01/25 14:33:12;;;;;;;12.15;9.35;;;;;;;;;;5013982;28;20044;-36
2022/01/25 14:35:42;;;;;;;9.85;8.43;;;;;;;;;;5025550;28;20037;-38
2022/01/25 14:38:13;;;;;;;11.85;9.48;;;;;;;;;;5024925;28;20517;-33
2022/01/25 14:40:39;;;;;;;12.18;8.80;;;;;;;;;;5023797;28;20549;-33
2022/01/25 14:43:04;;;;;;;11.88;9.43;;;;;;;;;;5020662;28;20030;-36
2022/01/25 14:45:30;;;;;;;10.57;8.90;;;;;;;;;;5005734;28;20037;-35
2022/01/25 14:47:56;;;;;;;10.93;9.00;;;;;;;;;;4987098;28;20503;-36
2022/01/25 14:50:33;;;;;;;11.98;9.48;;;;;;;;;;5005118;28;20030;-36
2022/01/25 14:53:09;;;;;;;11.57;9.10;;;;;;;;;;5005544;28;20500;-34
2022/01/25 14:55:36;;;;;;;10.55;8.90;;;;;;;;;;5005391;28;20112;-35
2022/01/25 14:59:22;;;;;;;11.05;9.07;;;;;;;;;;5004208;28;20040;-38
2022/01/25 15:00:54;;;;;;;11.27;9.15;;;;;;;;;;5005182;28;20054;-29
2022/01/25 15:03:21;;;;;;;11.40;9.32;;;;;;;;;;5005317;28;20037;-38
2022/01/25 15:05:46;;;;;;;11.50;9.50;;;;;;;;;;5005389;28;20125;-32
2022/01/25 15:08:13;;;;;;;11.88;9.85;;;;;;;;;;5005513;28;20026;-32
2022/01/25 15:10:43;;;;;;;10.45;9.07;;;;;;;;;;5005267;28;20110;-32
2022/01/25 15:13:09;;;;;;;12.00;9.60;;;;;;;;;;5005402;28;20072;-36
2022/01/25 15:15:54;;;;;;;11.48;9.38;;;;;;;;;;5005303;28;20054;-35
2022/01/25 15:18:31;;;;;;;12.15;9.68;;;;;;;;;;5005149;28;20038;-37
2022/01/25 15:20:57;;;;;;;12.20;9.43;;;;;;;;;;5005258;28;20030;-38
2022/01/25 15:23:24;;;;;;;11.73;9.70;;;;;;;;;;5005593;28;20076;-34
2022/01/25 15:25:55;;;;;;;11.02;9.63;;;;;;;;;;5008981;28;20053;-39
2022/01/25 15:28:21;;;;;;;12.20;9.95;;;;;;;;;;5007749;28;20471;-41
2022/01/25 15:30:47;;;;;;;10.85;9.27;;;;;;;;;;5009118;28;20022;-37
2022/01/25 15:33:13;;;;;;;12.80;10.55;;;;;;;;;;5008611;28;20444;-30
2022/01/25 15:35:39;;;;;;;13.07;10.52;;;;;;;;;;5008946;28;20037;-37
2022/01/25 15:38:05;;;;;;;13.30;10.02;;;;;;;;;;5008382;28;20116;-33
2022/01/25 15:40:32;;;;;;;12.48;9.95;;;;;;;;;;5008840;28;20027;-33
2022/01/25 15:42:58;;;;;;;13.65;10.65;;;;;;;;;;5005656;28;20028;-33
2022/01/25 15:45:28;;;;;;;12.32;10.25;;;;;;;;;;4989096;28;20022;-30
2022/01/25 15:47:53;;;;;;;15.30;11.13;;;;;;;;;;4989325;28;20061;-36
2022/01/25 15:50:21;;;;;;;12.85;10.50;;;;;;;;;;4988826;28;20501;-38
2022/01/25 15:52:47;;;;;;;23.55;12.45;;;;;;;;;;5010140;28;20416;-34
2022/01/25 15:55:12;;;;;;;21.38;12.52;;;;;;;;;;4995213;28;20031;-33
2022/01/25 15:57:38;;;;;;;17.45;10.07;;;;;;;;;;5014390;28;20056;-36
2022/01/25 16:00:04;;;;;;;15.93;10.25;;;;;;;;;;5013203;28;20514;-34
2022/01/25 16:02:30;;;;;;;19.95;10.50;;;;;;;;;;5008646;28;20101;-32
2022/01/25 16:04:55;;;;;;;19.75;10.00;;;;;;;;;;4998332;28;20433;-37
2022/01/25 16:07:21;;;;;;;15.15;10.63;;;;;;;;;;5003658;28;20030;-32
2022/01/25 16:09:53;;;;;;;14.85;9.85;;;;;;;;;;5001096;28;20037;-34
2022/01/25 16:12:18;;;;;;;16.75;9.82;;;;;;;;;;5001872;28;20034;-38
2022/01/25 16:14:44;;;;;;;14.30;9.15;;;;;;;;;;5010552;28;20757;-38
2022/01/25 16:17:10;;;;;;;14.88;10.20;;;;;;;;;;5023051;28;20155;-36
2022/01/25 16:19:35;;;;;;;18.65;10.02;;;;;;;;;;5005313;28;20500;-37
2022/01/25 16:22:01;;;;;;;16.58;9.18;;;;;;;;;;5005180;28;20033;-39
2022/01/25 16:24:27;;;;;;;11.18;8.48;;;;;;;;;;5004496;28;20069;-34
2022/01/25 16:26:52;;;;;;;17.92;9.60;;;;;;;;;;5005287;28;20038;-35
2022/01/25 16:29:18;;;;;;;13.55;9.50;;;;;;;;;;5005004;28;20038;-36
2022/01/25 16:31:44;;;;;;;16.58;9.95;;;;;;;;;;5005164;28;20033;-36
2022/01/25 16:34:11;;;;;;;14.35;10.13;;;;;;;;;;5003664;28;20153;-35
2022/01/25 16:36:37;;;;;;;16.33;9.85;;;;;;;;;;4995140;28;20030;-37
2022/01/25 16:39:04;;;;;;;15.98;9.75;;;;;;;;;;4999253;28;20029;-36
2022/01/25 16:41:30;;;;;;;14.65;9.32;;;;;;;;;;4995988;28;20034;-38
2022/01/25 16:43:55;;;;;;;13.30;9.93;;;;;;;;;;4992624;28;20073;-37
2022/01/25 16:46:22;;;;;;;12.82;9.52;;;;;;;;;;4991054;28;20033;-37
2022/01/25 16:48:47;;;;;;;13.48;9.27;;;;;;;;;;5003053;28;20555;-37
2022/01/25 16:51:14;;;;;;;13.77;9.35;;;;;;;;;;5004322;28;20116;-37
2022/01/25 16:53:40;;;;;;;12.52;9.00;;;;;;;;;;5004820;28;20390;-37